sensor_id;sensor_type;location;lat;lon;timestamp;temperature;humidity
74294;DHT22;64044;59.904;10.738;2023-07-13T00:00:41;19.70;72.90
74294;DHT22;64044;59.904;10.738;2023-07-13T00:03:07;19.70;72.20
74294;DHT22;64044;59.904;10.738;2023-07-13T00:05:33;19.70;72.10
74294;DHT22;64044;59.904;10.738;2023-07-13T00:07:59;19.70;72.10
74294;DHT22;64044;59.904;10.738;2023-07-13T00:10:24;19.70;72.30
74294;DHT22;64044;59.904;10.738;2023-07-13T00:12:51;19.70;72.30
74294;DHT22;64044;59.904;10.738;2023-07-13T00:15:23;19.70;72.30
74294;DHT22;64044;59.904;10.738;2023-07-13T00:17:53;19.70;72.40
74294;DHT22;64044;59.904;10.738;2023-07-13T00:20:23;19.70;72.50
74294;DHT22;64044;59.904;10.738;2023-07-13T00:22:52;19.70;72.50
74294;DHT22;64044;59.904;10.738;2023-07-13T00:25:21;19.70;72.40
74294;DHT22;64044;59.904;10.738;2023-07-13T00:27:50;19.70;72.40
74294;DHT22;64044;59.904;10.738;2023-07-13T00:30:16;19.70;72.40
74294;DHT22;64044;59.904;10.738;2023-07-13T00:32:42;19.70;72.40
74294;DHT22;64044;59.904;10.738;2023-07-13T00:35:08;19.70;72.30
74294;DHT22;64044;59.904;10.738;2023-07-13T00:37:34;19.70;72.30
74294;DHT22;64044;59.904;10.738;2023-07-13T00:40:05;19.70;72.30
74294;DHT22;64044;59.904;10.738;2023-07-13T00:42:31;19.70;72.50
74294;DHT22;64044;59.904;10.738;2023-07-13T00:47:48;19.60;72.40
74294;DHT22;64044;59.904;10.738;2023-07-13T00:50:16;19.60;72.30
74294;DHT22;64044;59.904;10.738;2023-07-13T00:52:45;19.60;72.50
74294;DHT22;64044;59.904;10.738;2023-07-13T00:55:12;19.60;72.70
74294;DHT22;64044;59.904;10.738;2023-07-13T00:57:38;19.60;72.70
74294;DHT22;64044;59.904;10.738;2023-07-13T01:00:06;19.60;72.60
74294;DHT22;64044;59.904;10.738;2023-07-13T01:02:37;19.60;72.70
74294;DHT22;64044;59.904;10.738;2023-07-13T01:05:23;19.50;72.80
74294;DHT22;64044;59.904;10.738;2023-07-13T01:07:51;19.60;73.20
74294;DHT22;64044;59.904;10.738;2023-07-13T01:10:18;19.50;73.00
74294;DHT22;64044;59.904;10.738;2023-07-13T01:12:46;19.50;73.00
74294;DHT22;64044;59.904;10.738;2023-07-13T01:15:44;19.50;73.00
74294;DHT22;64044;59.904;10.738;2023-07-13T01:18:14;19.50;73.30
74294;DHT22;64044;59.904;10.738;2023-07-13T01:20:41;19.50;73.10
74294;DHT22;64044;59.904;10.738;2023-07-13T01:23:09;19.50;73.20
74294;DHT22;64044;59.904;10.738;2023-07-13T01:25:36;19.60;73.30
74294;DHT22;64044;59.904;10.738;2023-07-13T01:28:04;19.50;73.30
74294;DHT22;64044;59.904;10.738;2023-07-13T01:30:30;19.60;73.50
74294;DHT22;64044;59.904;10.738;2023-07-13T01:32:57;19.50;73.50
74294;DHT22;64044;59.904;10.738;2023-07-13T01:35:24;19.50;73.60
74294;DHT22;64044;59.904;10.738;2023-07-13T01:37:51;19.50;73.60
74294;DHT22;64044;59.904;10.738;2023-07-13T01:40:17;19.50;73.60
74294;DHT22;64044;59.904;10.738;2023-07-13T01:42:43;19.50;73.60
74294;DHT22;64044;59.904;10.738;2023-07-13T01:45:09;19.50;73.60
74294;DHT22;64044;59.904;10.738;2023-07-13T01:47:34;19.50;73.50
74294;DHT22;64044;59.904;10.738;2023-07-13T01:50:00;19.50;73.50
74294;DHT22;64044;59.904;10.738;2023-07-13T01:52:26;19.50;73.40
74294;DHT22;64044;59.904;10.738;2023-07-13T01:54:52;19.50;73.50
74294;DHT22;64044;59.904;10.738;2023-07-13T01:57:17;19.50;73.60
74294;DHT22;64044;59.904;10.738;2023-07-13T01:59:43;19.50;73.50
74294;DHT22;64044;59.904;10.738;2023-07-13T02:02:09;19.50;73.50
74294;DHT22;64044;59.904;10.738;2023-07-13T02:04:35;19.50;73.60
74294;DHT22;64044;59.904;10.738;2023-07-13T02:07:00;19.50;73.70
74294;DHT22;64044;59.904;10.738;2023-07-13T02:09:26;19.50;74.00
74294;DHT22;64044;59.904;10.738;2023-07-13T02:11:52;19.40;73.80
74294;DHT22;64044;59.904;10.738;2023-07-13T02:14:18;19.50;73.90
74294;DHT22;64044;59.904;10.738;2023-07-13T02:16:43;19.40;74.00
74294;DHT22;64044;59.904;10.738;2023-07-13T02:19:09;19.50;74.00
74294;DHT22;64044;59.904;10.738;2023-07-13T02:21:35;19.50;74.00
74294;DHT22;64044;59.904;10.738;2023-07-13T02:24:01;19.40;74.00
74294;DHT22;64044;59.904;10.738;2023-07-13T02:26:27;19.40;74.00
74294;DHT22;64044;59.904;10.738;2023-07-13T02:28:53;19.50;74.10
74294;DHT22;64044;59.904;10.738;2023-07-13T02:31:19;19.50;74.00
74294;DHT22;64044;59.904;10.738;2023-07-13T02:33:45;19.40;74.00
74294;DHT22;64044;59.904;10.738;2023-07-13T02:36:12;19.50;74.10
74294;DHT22;64044;59.904;10.738;2023-07-13T02:38:39;19.40;74.00
74294;DHT22;64044;59.904;10.738;2023-07-13T02:41:06;19.50;74.10
74294;DHT22;64044;59.904;10.738;2023-07-13T02:43:32;19.40;74.10
74294;DHT22;64044;59.904;10.738;2023-07-13T02:45:59;19.40;74.00
74294;DHT22;64044;59.904;10.738;2023-07-13T02:48:30;19.40;74.20
74294;DHT22;64044;59.904;10.738;2023-07-13T02:50:55;19.40;74.10
74294;DHT22;64044;59.904;10.738;2023-07-13T02:53:21;19.40;74.00
74294;DHT22;64044;59.904;10.738;2023-07-13T02:55:47;19.40;74.00
74294;DHT22;64044;59.904;10.738;2023-07-13T02:58:13;19.40;74.10
74294;DHT22;64044;59.904;10.738;2023-07-13T03:00:46;19.40;74.10
74294;DHT22;64044;59.904;10.738;2023-07-13T03:03:13;19.40;74.20
74294;DHT22;64044;59.904;10.738;2023-07-13T03:05:41;19.40;74.20
74294;DHT22;64044;59.904;10.738;2023-07-13T03:08:09;19.40;74.30
74294;DHT22;64044;59.904;10.738;2023-07-13T03:10:34;19.40;74.20
74294;DHT22;64044;59.904;10.738;2023-07-13T03:13:01;19.40;74.20
74294;DHT22;64044;59.904;10.738;2023-07-13T03:15:27;19.40;74.20
74294;DHT22;64044;59.904;10.738;2023-07-13T03:17:52;19.40;74.20
74294;DHT22;64044;59.904;10.738;2023-07-13T03:20:19;19.40;74.00
74294;DHT22;64044;59.904;10.738;2023-07-13T03:22:44;19.40;74.10
74294;DHT22;64044;59.904;10.738;2023-07-13T03:25:10;19.40;74.20
74294;DHT22;64044;59.904;10.738;2023-07-13T03:27:37;19.30;74.30
74294;DHT22;64044;59.904;10.738;2023-07-13T03:30:06;19.30;74.30
74294;DHT22;64044;59.904;10.738;2023-07-13T03:32:33;19.40;74.30
74294;DHT22;64044;59.904;10.738;2023-07-13T03:34:58;19.40;74.10
74294;DHT22;64044;59.904;10.738;2023-07-13T03:37:24;19.40;74.10
74294;DHT22;64044;59.904;10.738;2023-07-13T03:39:50;19.30;74.20
74294;DHT22;64044;59.904;10.738;2023-07-13T03:42:16;19.30;74.10
74294;DHT22;64044;59.904;10.738;2023-07-13T03:44:42;19.40;74.20
74294;DHT22;64044;59.904;10.738;2023-07-13T03:47:11;19.40;74.30
74294;DHT22;64044;59.904;10.738;2023-07-13T03:49:37;19.40;74.40
74294;DHT22;64044;59.904;10.738;2023-07-13T03:52:03;19.40;74.30
74294;DHT22;64044;59.904;10.738;2023-07-13T03:54:29;19.40;74.20
74294;DHT22;64044;59.904;10.738;2023-07-13T03:56:55;19.40;74.20
74294;DHT22;64044;59.904;10.738;2023-07-13T03:59:21;19.30;74.20
74294;DHT22;64044;59.904;10.738;2023-07-13T04:01:47;19.40;74.30
74294;DHT22;64044;59.904;10.738;2023-07-13T04:04:13;19.40;74.30
74294;DHT22;64044;59.904;10.738;2023-07-13T04:06:38;19.40;74.40
74294;DHT22;64044;59.904;10.738;2023-07-13T04:09:04;19.30;74.40
74294;DHT22;64044;59.904;10.738;2023-07-13T04:11:34;19.40;74.40
74294;DHT22;64044;59.904;10.738;2023-07-13T04:14:02;19.40;74.40
74294;DHT22;64044;59.904;10.738;2023-07-13T04:16:28;19.30;74.50
74294;DHT22;64044;59.904;10.738;2023-07-13T04:18:55;19.30;74.40
74294;DHT22;64044;59.904;10.738;2023-07-13T04:21:28;19.30;74.30
74294;DHT22;64044;59.904;10.738;2023-07-13T04:23:55;19.30;74.30
74294;DHT22;64044;59.904;10.738;2023-07-13T04:26:21;19.20;74.40
74294;DHT22;64044;59.904;10.738;2023-07-13T04:28:48;19.20;74.40
74294;DHT22;64044;59.904;10.738;2023-07-13T04:31:14;19.20;74.60
74294;DHT22;64044;59.904;10.738;2023-07-13T04:33:40;19.10;74.70
74294;DHT22;64044;59.904;10.738;2023-07-13T04:36:06;19.10;74.80
74294;DHT22;64044;59.904;10.738;2023-07-13T04:38:35;19.10;74.90
74294;DHT22;64044;59.904;10.738;2023-07-13T04:41:04;19.10;75.00
74294;DHT22;64044;59.904;10.738;2023-07-13T04:43:31;19.10;75.00
74294;DHT22;64044;59.904;10.738;2023-07-13T04:46:06;19.10;74.90
74294;DHT22;64044;59.904;10.738;2023-07-13T04:48:33;19.10;75.10
74294;DHT22;64044;59.904;10.738;2023-07-13T04:50:59;19.00;75.00
74294;DHT22;64044;59.904;10.738;2023-07-13T04:53:26;19.10;75.00
74294;DHT22;64044;59.904;10.738;2023-07-13T04:55:52;19.10;75.00
74294;DHT22;64044;59.904;10.738;2023-07-13T04:58:18;19.10;75.10
74294;DHT22;64044;59.904;10.738;2023-07-13T05:00:44;19.10;75.10
74294;DHT22;64044;59.904;10.738;2023-07-13T05:03:10;19.10;75.20
74294;DHT22;64044;59.904;10.738;2023-07-13T05:05:36;19.10;75.40
74294;DHT22;64044;59.904;10.738;2023-07-13T05:08:01;19.20;75.50
74294;DHT22;64044;59.904;10.738;2023-07-13T05:10:27;19.20;75.50
74294;DHT22;64044;59.904;10.738;2023-07-13T05:12:53;19.20;75.50
74294;DHT22;64044;59.904;10.738;2023-07-13T05:15:21;19.20;75.30
74294;DHT22;64044;59.904;10.738;2023-07-13T05:17:48;19.30;75.30
74294;DHT22;64044;59.904;10.738;2023-07-13T05:20:15;19.30;75.00
74294;DHT22;64044;59.904;10.738;2023-07-13T05:22:42;19.30;74.90
74294;DHT22;64044;59.904;10.738;2023-07-13T05:25:08;19.40;74.80
74294;DHT22;64044;59.904;10.738;2023-07-13T05:27:35;19.40;74.70
74294;DHT22;64044;59.904;10.738;2023-07-13T05:30:02;19.50;74.50
74294;DHT22;64044;59.904;10.738;2023-07-13T05:32:28;19.50;74.20
74294;DHT22;64044;59.904;10.738;2023-07-13T05:34:54;19.50;74.00
74294;DHT22;64044;59.904;10.738;2023-07-13T05:37:20;19.50;73.60
74294;DHT22;64044;59.904;10.738;2023-07-13T05:39:46;19.50;73.40
74294;DHT22;64044;59.904;10.738;2023-07-13T05:42:11;19.60;73.30
74294;DHT22;64044;59.904;10.738;2023-07-13T05:44:37;19.60;73.10
74294;DHT22;64044;59.904;10.738;2023-07-13T05:47:03;19.60;73.00
74294;DHT22;64044;59.904;10.738;2023-07-13T05:49:29;19.60;72.90
74294;DHT22;64044;59.904;10.738;2023-07-13T05:51:56;19.60;72.70
74294;DHT22;64044;59.904;10.738;2023-07-13T05:54:22;19.70;72.60
74294;DHT22;64044;59.904;10.738;2023-07-13T05:56:48;19.70;72.30
74294;DHT22;64044;59.904;10.738;2023-07-13T05:59:38;19.70;72.10
74294;DHT22;64044;59.904;10.738;2023-07-13T06:02:05;19.70;71.70
74294;DHT22;64044;59.904;10.738;2023-07-13T06:04:30;19.80;71.80
74294;DHT22;64044;59.904;10.738;2023-07-13T06:06:56;19.80;71.60
74294;DHT22;64044;59.904;10.738;2023-07-13T06:09:22;19.80;71.40
74294;DHT22;64044;59.904;10.738;2023-07-13T06:11:48;19.80;71.20
74294;DHT22;64044;59.904;10.738;2023-07-13T06:14:13;19.70;71.30
74294;DHT22;64044;59.904;10.738;2023-07-13T06:16:40;19.80;71.20
74294;DHT22;64044;59.904;10.738;2023-07-13T06:19:06;19.80;71.00
74294;DHT22;64044;59.904;10.738;2023-07-13T06:21:32;19.80;71.00
74294;DHT22;64044;59.904;10.738;2023-07-13T06:23:58;19.90;70.90
74294;DHT22;64044;59.904;10.738;2023-07-13T06:26:24;19.90;70.70
74294;DHT22;64044;59.904;10.738;2023-07-13T06:28:49;19.90;70.50
74294;DHT22;64044;59.904;10.738;2023-07-13T06:31:15;20.00;70.50
74294;DHT22;64044;59.904;10.738;2023-07-13T06:33:41;20.00;71.20
74294;DHT22;64044;59.904;10.738;2023-07-13T06:36:07;20.00;70.40
74294;DHT22;64044;59.904;10.738;2023-07-13T06:38:34;20.10;70.50
74294;DHT22;64044;59.904;10.738;2023-07-13T06:41:06;20.10;70.40
74294;DHT22;64044;59.904;10.738;2023-07-13T06:43:32;20.20;70.20
74294;DHT22;64044;59.904;10.738;2023-07-13T06:45:57;20.20;70.20
74294;DHT22;64044;59.904;10.738;2023-07-13T06:48:23;20.30;70.00
74294;DHT22;64044;59.904;10.738;2023-07-13T06:50:50;20.30;69.60
74294;DHT22;64044;59.904;10.738;2023-07-13T06:53:18;20.30;69.20
74294;DHT22;64044;59.904;10.738;2023-07-13T06:55:44;20.40;69.00
74294;DHT22;64044;59.904;10.738;2023-07-13T06:58:11;20.40;68.90
74294;DHT22;64044;59.904;10.738;2023-07-13T07:00:36;20.50;69.00
74294;DHT22;64044;59.904;10.738;2023-07-13T07:03:02;20.60;68.90
74294;DHT22;64044;59.904;10.738;2023-07-13T07:05:28;20.60;68.70
74294;DHT22;64044;59.904;10.738;2023-07-13T07:07:55;20.70;68.60
74294;DHT22;64044;59.904;10.738;2023-07-13T07:10:21;20.80;68.40
74294;DHT22;64044;59.904;10.738;2023-07-13T07:12:47;20.90;68.20
74294;DHT22;64044;59.904;10.738;2023-07-13T07:15:13;20.90;67.80
74294;DHT22;64044;59.904;10.738;2023-07-13T07:17:39;21.00;67.60
74294;DHT22;64044;59.904;10.738;2023-07-13T07:20:06;21.00;67.50
74294;DHT22;64044;59.904;10.738;2023-07-13T07:22:32;21.10;67.20
74294;DHT22;64044;59.904;10.738;2023-07-13T07:24:58;21.20;66.90
74294;DHT22;64044;59.904;10.738;2023-07-13T07:27:24;21.20;66.50
74294;DHT22;64044;59.904;10.738;2023-07-13T07:29:50;21.20;66.20
74294;DHT22;64044;59.904;10.738;2023-07-13T07:32:16;21.30;65.90
74294;DHT22;64044;59.904;10.738;2023-07-13T07:34:42;21.30;65.70
74294;DHT22;64044;59.904;10.738;2023-07-13T07:37:11;21.30;65.70
74294;DHT22;64044;59.904;10.738;2023-07-13T07:39:37;21.30;65.60
74294;DHT22;64044;59.904;10.738;2023-07-13T07:42:04;21.30;65.00
74294;DHT22;64044;59.904;10.738;2023-07-13T07:44:31;21.40;64.90
74294;DHT22;64044;59.904;10.738;2023-07-13T07:46:58;21.40;65.20
74294;DHT22;64044;59.904;10.738;2023-07-13T07:49:23;21.40;64.70
74294;DHT22;64044;59.904;10.738;2023-07-13T07:51:49;21.40;64.30
74294;DHT22;64044;59.904;10.738;2023-07-13T07:54:16;21.50;64.00
74294;DHT22;64044;59.904;10.738;2023-07-13T07:56:42;21.50;63.70
74294;DHT22;64044;59.904;10.738;2023-07-13T07:59:08;21.50;63.70
74294;DHT22;64044;59.904;10.738;2023-07-13T08:01:35;21.60;63.50
74294;DHT22;64044;59.904;10.738;2023-07-13T08:04:01;21.60;63.60
74294;DHT22;64044;59.904;10.738;2023-07-13T08:06:27;21.60;63.00
74294;DHT22;64044;59.904;10.738;2023-07-13T08:08:54;21.70;62.60
74294;DHT22;64044;59.904;10.738;2023-07-13T08:11:21;21.70;62.20
74294;DHT22;64044;59.904;10.738;2023-07-13T08:13:46;21.70;62.00
74294;DHT22;64044;59.904;10.738;2023-07-13T08:16:12;21.70;61.70
74294;DHT22;64044;59.904;10.738;2023-07-13T08:18:38;21.70;61.60
74294;DHT22;64044;59.904;10.738;2023-07-13T08:21:05;21.80;61.70
74294;DHT22;64044;59.904;10.738;2023-07-13T08:23:31;21.70;61.20
74294;DHT22;64044;59.904;10.738;2023-07-13T08:25:57;21.70;61.00
74294;DHT22;64044;59.904;10.738;2023-07-13T08:28:24;21.70;61.20
74294;DHT22;64044;59.904;10.738;2023-07-13T08:30:50;21.70;61.00
74294;DHT22;64044;59.904;10.738;2023-07-13T08:33:20;21.70;61.00
74294;DHT22;64044;59.904;10.738;2023-07-13T08:35:47;21.70;60.70
74294;DHT22;64044;59.904;10.738;2023-07-13T08:38:13;21.70;60.60
74294;DHT22;64044;59.904;10.738;2023-07-13T08:40:39;21.70;60.50
74294;DHT22;64044;59.904;10.738;2023-07-13T08:43:12;21.60;60.40
74294;DHT22;64044;59.904;10.738;2023-07-13T08:46:12;21.60;60.50
74294;DHT22;64044;59.904;10.738;2023-07-13T08:48:46;21.60;60.30
74294;DHT22;64044;59.904;10.738;2023-07-13T08:51:57;21.60;60.00
74294;DHT22;64044;59.904;10.738;2023-07-13T08:54:20;21.60;60.20
74294;DHT22;64044;59.904;10.738;2023-07-13T08:56:49;21.60;59.90
74294;DHT22;64044;59.904;10.738;2023-07-13T08:59:18;21.50;59.60
74294;DHT22;64044;59.904;10.738;2023-07-13T09:04:22;21.50;59.80
74294;DHT22;64044;59.904;10.738;2023-07-13T09:15:31;21.50;59.80
74294;DHT22;64044;59.904;10.738;2023-07-13T09:20:37;21.50;60.00
74294;DHT22;64044;59.904;10.738;2023-07-13T09:23:10;21.50;60.10
74294;DHT22;64044;59.904;10.738;2023-07-13T09:25:38;21.50;59.90
74294;DHT22;64044;59.904;10.738;2023-07-13T09:28:18;21.50;59.50
74294;DHT22;64044;59.904;10.738;2023-07-13T09:33:17;21.50;59.00
74294;DHT22;64044;59.904;10.738;2023-07-13T09:35:42;21.50;58.60
74294;DHT22;64044;59.904;10.738;2023-07-13T09:38:19;21.50;58.60
74294;DHT22;64044;59.904;10.738;2023-07-13T09:43:34;21.50;58.30
74294;DHT22;64044;59.904;10.738;2023-07-13T09:46:00;21.50;58.40
74294;DHT22;64044;59.904;10.738;2023-07-13T09:48:34;21.50;58.40
74294;DHT22;64044;59.904;10.738;2023-07-13T09:51:12;21.60;58.50
74294;DHT22;64044;59.904;10.738;2023-07-13T09:53:42;21.60;58.20
74294;DHT22;64044;59.904;10.738;2023-07-13T09:56:29;21.70;58.30
74294;DHT22;64044;59.904;10.738;2023-07-13T09:58:55;21.80;58.20
74294;DHT22;64044;59.904;10.738;2023-07-13T10:01:40;21.80;57.40
74294;DHT22;64044;59.904;10.738;2023-07-13T10:04:11;21.90;57.50
74294;DHT22;64044;59.904;10.738;2023-07-13T10:06:39;22.00;57.30
74294;DHT22;64044;59.904;10.738;2023-07-13T10:09:09;22.10;57.20
74294;DHT22;64044;59.904;10.738;2023-07-13T10:11:36;22.20;57.00
74294;DHT22;64044;59.904;10.738;2023-07-13T10:14:15;22.30;57.10
74294;DHT22;64044;59.904;10.738;2023-07-13T10:16:45;22.30;56.60
74294;DHT22;64044;59.904;10.738;2023-07-13T10:19:19;22.40;56.40
74294;DHT22;64044;59.904;10.738;2023-07-13T10:21:59;22.40;55.90
74294;DHT22;64044;59.904;10.738;2023-07-13T10:24:30;22.50;55.40
74294;DHT22;64044;59.904;10.738;2023-07-13T10:26:58;22.60;55.10
74294;DHT22;64044;59.904;10.738;2023-07-13T10:29:27;22.60;54.30
74294;DHT22;64044;59.904;10.738;2023-07-13T10:31:55;22.70;54.40
74294;DHT22;64044;59.904;10.738;2023-07-13T10:34:22;22.80;54.30
74294;DHT22;64044;59.904;10.738;2023-07-13T10:36:49;22.80;54.40
74294;DHT22;64044;59.904;10.738;2023-07-13T10:39:24;23.00;55.00
74294;DHT22;64044;59.904;10.738;2023-07-13T10:41:54;23.10;53.50
74294;DHT22;64044;59.904;10.738;2023-07-13T10:44:29;23.20;53.50
74294;DHT22;64044;59.904;10.738;2023-07-13T10:47:16;23.40;52.90
74294;DHT22;64044;59.904;10.738;2023-07-13T10:49:44;23.50;52.90
74294;DHT22;64044;59.904;10.738;2023-07-13T10:55:32;23.70;52.00
74294;DHT22;64044;59.904;10.738;2023-07-13T10:58:03;23.80;51.50
74294;DHT22;64044;59.904;10.738;2023-07-13T11:00:46;23.80;50.80
74294;DHT22;64044;59.904;10.738;2023-07-13T11:03:15;23.90;50.10
74294;DHT22;64044;59.904;10.738;2023-07-13T11:05:42;23.90;49.60
74294;DHT22;64044;59.904;10.738;2023-07-13T11:08:19;24.00;49.40
74294;DHT22;64044;59.904;10.738;2023-07-13T11:10:55;24.00;49.60
74294;DHT22;64044;59.904;10.738;2023-07-13T11:18:52;24.00;48.40
74294;DHT22;64044;59.904;10.738;2023-07-13T11:21:21;24.10;48.60
74294;DHT22;64044;59.904;10.738;2023-07-13T11:24:01;24.10;48.60
74294;DHT22;64044;59.904;10.738;2023-07-13T11:31:41;24.10;48.40
74294;DHT22;64044;59.904;10.738;2023-07-13T11:34:14;24.10;48.40
74294;DHT22;64044;59.904;10.738;2023-07-13T11:36:44;24.00;48.50
74294;DHT22;64044;59.904;10.738;2023-07-13T11:39:18;24.00;48.40
74294;DHT22;64044;59.904;10.738;2023-07-13T11:41:53;24.00;49.40
74294;DHT22;64044;59.904;10.738;2023-07-13T11:44:23;24.00;48.80
74294;DHT22;64044;59.904;10.738;2023-07-13T11:46:54;24.10;48.90
74294;DHT22;64044;59.904;10.738;2023-07-13T11:49:25;24.20;49.10
74294;DHT22;64044;59.904;10.738;2023-07-13T11:51:53;24.30;48.50
74294;DHT22;64044;59.904;10.738;2023-07-13T11:54:29;24.50;48.80
74294;DHT22;64044;59.904;10.738;2023-07-13T11:57:02;24.60;49.00
74294;DHT22;64044;59.904;10.738;2023-07-13T11:59:32;24.80;49.00
74294;DHT22;64044;59.904;10.738;2023-07-13T12:01:59;25.00;48.30
74294;DHT22;64044;59.904;10.738;2023-07-13T12:04:31;25.10;48.10
74294;DHT22;64044;59.904;10.738;2023-07-13T12:07:16;25.20;47.70
74294;DHT22;64044;59.904;10.738;2023-07-13T12:09:42;25.40;47.60
74294;DHT22;64044;59.904;10.738;2023-07-13T12:12:18;25.40;47.00
74294;DHT22;64044;59.904;10.738;2023-07-13T12:14:44;25.60;47.10
74294;DHT22;64044;59.904;10.738;2023-07-13T12:17:20;25.80;46.90
74294;DHT22;64044;59.904;10.738;2023-07-13T12:19:48;26.00;46.40
74294;DHT22;64044;59.904;10.738;2023-07-13T12:22:16;26.20;46.40
74294;DHT22;64044;59.904;10.738;2023-07-13T12:24:42;26.50;45.70
74294;DHT22;64044;59.904;10.738;2023-07-13T12:27:27;26.90;45.70
74294;DHT22;64044;59.904;10.738;2023-07-13T12:30:03;27.20;44.80
74294;DHT22;64044;59.904;10.738;2023-07-13T12:32:31;27.40;44.00
74294;DHT22;64044;59.904;10.738;2023-07-13T12:35:17;27.50;43.80
74294;DHT22;64044;59.904;10.738;2023-07-13T12:37:46;27.50;43.00
74294;DHT22;64044;59.904;10.738;2023-07-13T12:40:19;27.40;42.90
74294;DHT22;64044;59.904;10.738;2023-07-13T12:42:49;27.40;43.10
74294;DHT22;64044;59.904;10.738;2023-07-13T12:45:22;27.50;43.10
74294;DHT22;64044;59.904;10.738;2023-07-13T12:47:52;27.60;43.40
74294;DHT22;64044;59.904;10.738;2023-07-13T12:50:21;27.70;43.50
74294;DHT22;64044;59.904;10.738;2023-07-13T12:53:02;27.80;43.40
74294;DHT22;64044;59.904;10.738;2023-07-13T12:55:29;27.90;43.60
74294;DHT22;64044;59.904;10.738;2023-07-13T12:57:59;28.10;43.60
74294;DHT22;64044;59.904;10.738;2023-07-13T13:01:11;28.00;42.20
74294;DHT22;64044;59.904;10.738;2023-07-13T13:03:40;27.80;41.90
74294;DHT22;64044;59.904;10.738;2023-07-13T13:08:49;27.20;43.00
74294;DHT22;64044;59.904;10.738;2023-07-13T13:11:16;27.10;44.30
74294;DHT22;64044;59.904;10.738;2023-07-13T13:13:42;27.00;44.70
74294;DHT22;64044;59.904;10.738;2023-07-13T13:18:54;26.90;44.20
74294;DHT22;64044;59.904;10.738;2023-07-13T13:21:23;26.60;44.40
74294;DHT22;64044;59.904;10.738;2023-07-13T13:23:49;26.40;44.40
74294;DHT22;64044;59.904;10.738;2023-07-13T13:26:23;26.10;45.40
74294;DHT22;64044;59.904;10.738;2023-07-13T13:28:49;25.80;46.60
74294;DHT22;64044;59.904;10.738;2023-07-13T13:31:15;25.40;47.70
74294;DHT22;64044;59.904;10.738;2023-07-13T13:33:43;25.00;48.70
74294;DHT22;64044;59.904;10.738;2023-07-13T13:36:22;24.60;49.40
74294;DHT22;64044;59.904;10.738;2023-07-13T13:38:49;24.30;50.20
74294;DHT22;64044;59.904;10.738;2023-07-13T13:41:16;24.00;51.00
74294;DHT22;64044;59.904;10.738;2023-07-13T13:43:42;23.60;52.10
74294;DHT22;64044;59.904;10.738;2023-07-13T13:46:21;23.20;53.40
74294;DHT22;64044;59.904;10.738;2023-07-13T13:48:48;22.80;54.20
74294;DHT22;64044;59.904;10.738;2023-07-13T13:51:17;22.30;55.80
74294;DHT22;64044;59.904;10.738;2023-07-13T13:53:45;22.00;55.70
74294;DHT22;64044;59.904;10.738;2023-07-13T13:56:12;21.70;56.20
74294;DHT22;64044;59.904;10.738;2023-07-13T13:58:39;21.60;57.10
74294;DHT22;64044;59.904;10.738;2023-07-13T14:01:08;21.40;57.00
74294;DHT22;64044;59.904;10.738;2023-07-13T14:03:37;21.40;58.70
74294;DHT22;64044;59.904;10.738;2023-07-13T14:06:03;21.50;62.20
74294;DHT22;64044;59.904;10.738;2023-07-13T14:08:29;21.90;63.30
74294;DHT22;64044;59.904;10.738;2023-07-13T14:10:57;22.40;63.80
74294;DHT22;64044;59.904;10.738;2023-07-13T14:13:50;23.00;62.30
74294;DHT22;64044;59.904;10.738;2023-07-13T14:16:21;23.70;60.10
74294;DHT22;64044;59.904;10.738;2023-07-13T14:18:48;24.30;58.10
74294;DHT22;64044;59.904;10.738;2023-07-13T14:21:20;24.60;55.40
74294;DHT22;64044;59.904;10.738;2023-07-13T14:23:47;24.80;53.60
74294;DHT22;64044;59.904;10.738;2023-07-13T14:26:19;24.80;52.40
74294;DHT22;64044;59.904;10.738;2023-07-13T14:28:48;24.80;51.80
74294;DHT22;64044;59.904;10.738;2023-07-13T14:31:15;24.60;51.90
74294;DHT22;64044;59.904;10.738;2023-07-13T14:33:41;24.50;52.00
74294;DHT22;64044;59.904;10.738;2023-07-13T14:36:33;24.20;51.30
74294;DHT22;64044;59.904;10.738;2023-07-13T14:39:05;24.00;52.20
74294;DHT22;64044;59.904;10.738;2023-07-13T14:41:35;23.70;52.50
74294;DHT22;64044;59.904;10.738;2023-07-13T14:44:01;23.50;53.20
74294;DHT22;64044;59.904;10.738;2023-07-13T14:46:31;23.20;53.30
74294;DHT22;64044;59.904;10.738;2023-07-13T14:51:50;22.60;55.50
74294;DHT22;64044;59.904;10.738;2023-07-13T14:54:16;22.20;56.50
74294;DHT22;64044;59.904;10.738;2023-07-13T14:56:42;21.90;57.50
74294;DHT22;64044;59.904;10.738;2023-07-13T14:59:07;21.60;57.90
74294;DHT22;64044;59.904;10.738;2023-07-13T15:01:35;21.30;58.70
74294;DHT22;64044;59.904;10.738;2023-07-13T15:04:02;21.10;59.40
74294;DHT22;64044;59.904;10.738;2023-07-13T15:06:28;20.90;60.20
74294;DHT22;64044;59.904;10.738;2023-07-13T15:08:54;20.70;60.90
74294;DHT22;64044;59.904;10.738;2023-07-13T15:11:21;20.60;62.30
74294;DHT22;64044;59.904;10.738;2023-07-13T15:13:47;20.50;62.70
74294;DHT22;64044;59.904;10.738;2023-07-13T15:16:16;20.50;62.50
74294;DHT22;64044;59.904;10.738;2023-07-13T15:18:44;20.50;62.80
74294;DHT22;64044;59.904;10.738;2023-07-13T15:21:14;20.50;62.70
74294;DHT22;64044;59.904;10.738;2023-07-13T15:23:42;20.50;62.30
74294;DHT22;64044;59.904;10.738;2023-07-13T15:26:13;20.60;61.70
74294;DHT22;64044;59.904;10.738;2023-07-13T15:28:40;20.60;62.70
74294;DHT22;64044;59.904;10.738;2023-07-13T15:31:18;20.70;61.20
74294;DHT22;64044;59.904;10.738;2023-07-13T15:33:45;20.70;60.50
74294;DHT22;64044;59.904;10.738;2023-07-13T15:36:14;20.80;60.00
74294;DHT22;64044;59.904;10.738;2023-07-13T15:38:39;20.80;59.70
74294;DHT22;64044;59.904;10.738;2023-07-13T15:41:26;20.90;59.40
74294;DHT22;64044;59.904;10.738;2023-07-13T15:43:55;21.00;59.40
74294;DHT22;64044;59.904;10.738;2023-07-13T15:46:24;21.10;59.30
74294;DHT22;64044;59.904;10.738;2023-07-13T15:48:52;21.20;59.10
74294;DHT22;64044;59.904;10.738;2023-07-13T15:51:24;21.40;59.50
74294;DHT22;64044;59.904;10.738;2023-07-13T15:53:54;21.50;59.20
74294;DHT22;64044;59.904;10.738;2023-07-13T15:56:23;21.60;58.90
74294;DHT22;64044;59.904;10.738;2023-07-13T15:58:50;21.70;58.20
74294;DHT22;64044;59.904;10.738;2023-07-13T16:01:17;21.80;58.30
74294;DHT22;64044;59.904;10.738;2023-07-13T16:03:46;21.90;58.10
74294;DHT22;64044;59.904;10.738;2023-07-13T16:06:19;22.00;57.70
74294;DHT22;64044;59.904;10.738;2023-07-13T16:08:48;22.10;57.70